createdAt,value
2019-02-23T00:01:10.134Z,99.90
2019-02-23T00:03:39.893Z,99.90
2019-02-23T00:06:09.681Z,98.90
2019-02-23T00:08:39.572Z,99.90
2019-02-23T00:11:09.450Z,99.90
2019-02-23T00:13:39.231Z,99.90
2019-02-23T00:16:08.946Z,99.90
2019-02-23T00:18:39.099Z,99.90
2019-02-23T00:21:08.899Z,99.90
2019-02-23T00:23:38.710Z,99.90
2019-02-23T00:26:08.442Z,99.90
2019-02-23T00:28:38.624Z,99.90
2019-02-23T00:31:10.217Z,99.90
2019-02-23T00:33:40.036Z,99.90
2019-02-23T00:36:09.784Z,99.90
2019-02-23T00:38:39.803Z,99.90
2019-02-23T00:41:09.594Z,99.90
2019-02-23T00:43:39.355Z,99.90
2019-02-23T00:46:09.174Z,99.90
2019-02-23T00:48:39.005Z,99.90
2019-02-23T00:51:08.855Z,99.90
2019-02-23T00:53:38.671Z,99.90
2019-02-23T00:56:08.430Z,99.90
2019-02-23T00:58:38.194Z,99.90
2019-02-23T01:01:07.898Z,99.90
2019-02-23T01:03:37.767Z,99.90
2019-02-23T01:06:07.570Z,99.90
2019-02-23T01:08:37.479Z,99.90
2019-02-23T01:11:07.226Z,99.90
2019-02-23T01:13:37.037Z,99.90
2019-02-23T01:16:06.905Z,99.90
2019-02-23T01:18:36.777Z,99.90
2019-02-23T01:21:06.597Z,99.90
2019-02-23T01:23:36.338Z,99.90
2019-02-23T01:26:06.161Z,99.90
2019-02-23T01:28:36.001Z,99.90
2019-02-23T01:31:05.731Z,99.90
2019-02-23T01:33:35.647Z,99.90
2019-02-23T01:36:05.495Z,99.90
2019-02-23T01:38:35.251Z,99.90
2019-02-23T01:41:05.001Z,99.90
2019-02-23T01:43:34.791Z,99.90
2019-02-23T01:46:04.872Z,99.90
2019-02-23T01:48:34.665Z,99.90
2019-02-23T01:51:04.510Z,99.90
2019-02-23T01:53:34.197Z,99.90
2019-02-23T01:56:04.082Z,99.90
2019-02-23T01:58:33.897Z,99.90
2019-02-23T02:01:03.690Z,99.90
2019-02-23T02:03:33.849Z,99.90
2019-02-23T02:06:03.689Z,99.90
2019-02-23T02:08:33.604Z,99.90
2019-02-23T02:11:03.439Z,99.90
2019-02-23T02:13:33.381Z,99.90
2019-02-23T02:16:03.234Z,99.90
2019-02-23T02:18:33.459Z,99.90
2019-02-23T02:21:03.350Z,99.90
2019-02-23T02:23:33.111Z,99.90
2019-02-23T02:26:02.958Z,99.90
2019-02-23T02:28:32.811Z,99.90
2019-02-23T02:31:02.609Z,99.90
2019-02-23T02:33:32.483Z,99.90
2019-02-23T02:36:02.247Z,99.90
2019-02-23T02:38:32.062Z,99.90
2019-02-23T02:41:02.136Z,99.90
2019-02-23T02:43:31.974Z,99.90
2019-02-23T02:46:01.823Z,99.90
2019-02-23T02:48:31.715Z,99.90
2019-02-23T02:51:01.562Z,99.90
2019-02-23T02:53:31.984Z,99.90
2019-02-23T02:56:01.832Z,99.90
2019-02-23T02:58:31.575Z,99.90
2019-02-23T03:01:01.372Z,99.90
2019-02-23T03:03:31.166Z,99.90
2019-02-23T03:06:01.015Z,99.90
2019-02-23T03:08:30.806Z,99.90
2019-02-23T03:11:00.618Z,99.90
2019-02-23T03:13:30.384Z,99.90
2019-02-23T03:16:00.236Z,99.90
2019-02-23T03:18:30.035Z,99.90
2019-02-23T03:20:59.805Z,99.90
2019-02-23T03:23:29.638Z,99.90
2019-02-23T03:25:59.489Z,99.90
2019-02-23T03:28:29.335Z,99.90
2019-02-23T03:30:59.170Z,99.90
2019-02-23T03:33:28.907Z,99.90
2019-02-23T03:35:58.680Z,99.90
2019-02-23T03:38:28.522Z,99.90
2019-02-23T03:40:58.411Z,99.90
2019-02-23T03:43:28.250Z,99.90
2019-02-23T03:45:58.062Z,99.90
2019-02-23T03:48:27.755Z,99.90
2019-02-23T03:50:57.868Z,99.90
2019-02-23T03:53:28.166Z,99.90
2019-02-23T03:55:58.132Z,99.90
2019-02-23T03:58:27.847Z,99.90
2019-02-23T04:00:57.607Z,99.90
2019-02-23T04:03:27.374Z,99.90
2019-02-23T04:05:57.186Z,99.90
2019-02-23T04:08:27.002Z,99.90
2019-02-23T04:10:56.806Z,99.90
2019-02-23T04:13:27.097Z,99.90
2019-02-23T04:15:56.846Z,99.90
2019-02-23T04:18:26.568Z,99.90
2019-02-23T04:21:01.753Z,99.90
2019-02-23T04:23:27.783Z,99.90
2019-02-23T04:25:57.561Z,99.90
2019-02-23T04:28:27.310Z,99.90
2019-02-23T04:30:57.141Z,99.90
2019-02-23T04:33:27.009Z,99.90
2019-02-23T04:35:56.859Z,99.90
2019-02-23T04:38:26.622Z,99.90
2019-02-23T04:40:56.450Z,99.90
2019-02-23T04:43:26.287Z,99.90
2019-02-23T04:45:56.086Z,99.90
2019-02-23T04:48:28.626Z,99.90
2019-02-23T04:50:58.407Z,99.90
2019-02-23T04:53:28.335Z,99.90
2019-02-23T04:55:58.219Z,99.90
2019-02-23T04:58:28.068Z,99.90
2019-02-23T05:00:57.890Z,99.90
2019-02-23T05:03:27.700Z,99.90
2019-02-23T05:05:57.538Z,99.90
2019-02-23T05:08:27.398Z,99.90
2019-02-23T05:10:57.580Z,99.90
2019-02-23T05:13:27.355Z,99.90
2019-02-23T05:15:57.174Z,99.90
2019-02-23T05:18:27.008Z,99.90
2019-02-23T05:20:56.849Z,99.90
2019-02-23T05:23:26.655Z,99.90
2019-02-23T05:25:56.458Z,99.90
2019-02-23T05:28:26.301Z,99.90
2019-02-23T05:30:56.081Z,99.90
2019-02-23T05:33:25.883Z,99.90
2019-02-23T05:35:55.723Z,99.90
2019-02-23T05:38:25.447Z,99.90
2019-02-23T05:40:55.316Z,99.90
2019-02-23T05:43:25.059Z,99.90
2019-02-23T05:45:54.877Z,99.90
2019-02-23T05:48:24.636Z,99.90
2019-02-23T05:50:54.453Z,99.90
2019-02-23T05:53:24.190Z,99.90
2019-02-23T05:55:54.012Z,99.90
2019-02-23T05:58:23.740Z,99.90
2019-02-23T06:00:53.543Z,99.90
2019-02-23T06:03:23.334Z,99.90
2019-02-23T06:05:55.174Z,99.90
2019-02-23T06:08:24.909Z,99.90
2019-02-23T06:10:54.718Z,99.90
2019-02-23T06:13:24.595Z,99.90
2019-02-23T06:15:54.348Z,99.90
2019-02-23T06:18:24.181Z,99.90
2019-02-23T06:20:53.945Z,99.90
2019-02-23T06:23:23.935Z,99.90
2019-02-23T06:25:53.694Z,99.90
2019-02-23T06:28:23.577Z,99.90
2019-02-23T06:30:53.329Z,99.90
2019-02-23T06:33:23.109Z,99.90
2019-02-23T06:35:53.473Z,99.90
2019-02-23T06:38:23.236Z,99.90
2019-02-23T06:40:53.096Z,99.90
2019-02-23T06:43:22.886Z,99.90
2019-02-23T06:45:52.743Z,99.90
2019-02-23T06:48:22.623Z,99.90
2019-02-23T06:50:52.945Z,99.90
2019-02-23T06:53:22.714Z,99.90
2019-02-23T06:55:52.511Z,99.90
2019-02-23T06:58:22.281Z,99.90
2019-02-23T07:00:52.102Z,99.90
2019-02-23T07:03:21.992Z,99.90
2019-02-23T07:05:51.919Z,99.90
2019-02-23T07:08:21.788Z,99.90
2019-02-23T07:10:51.702Z,99.90
2019-02-23T07:13:21.616Z,99.90
2019-02-23T07:15:51.495Z,99.90
2019-02-23T07:18:21.303Z,99.90
2019-02-23T07:20:51.179Z,99.90
2019-02-23T07:23:21.059Z,99.90
2019-02-23T07:25:50.922Z,99.90
2019-02-23T07:28:22.285Z,99.90
2019-02-23T07:30:52.015Z,99.90
2019-02-23T07:33:32.344Z,99.90
2019-02-23T07:35:53.235Z,99.90
2019-02-23T07:38:25.552Z,99.90
2019-02-23T07:40:55.339Z,99.90
2019-02-23T07:43:25.148Z,99.90
2019-02-23T07:45:54.935Z,99.90
2019-02-23T07:48:24.765Z,99.90
2019-02-23T07:50:54.575Z,99.90
2019-02-23T07:53:26.035Z,99.90
2019-02-23T07:55:56.051Z,99.90
2019-02-23T07:58:25.890Z,99.90
2019-02-23T08:00:55.706Z,99.90
2019-02-23T08:03:25.746Z,99.90
2019-02-23T08:05:55.523Z,99.90
2019-02-23T08:08:25.308Z,99.90
2019-02-23T08:10:55.088Z,98.00
2019-02-23T08:13:24.963Z,99.90
2019-02-23T08:15:54.758Z,99.90
2019-02-23T08:18:24.598Z,99.90
2019-02-23T08:20:54.334Z,98.20
2019-02-23T08:23:24.129Z,98.20
2019-02-23T08:25:53.962Z,99.90
2019-02-23T08:28:23.795Z,93.50
2019-02-23T08:30:53.512Z,99.10
2019-02-23T08:33:24.243Z,99.90
2019-02-23T08:35:54.022Z,83.20
2019-02-23T08:38:23.943Z,94.20
2019-02-23T08:40:53.717Z,89.70
2019-02-23T08:43:23.559Z,90.10
2019-02-23T08:45:53.277Z,92.30
2019-02-23T08:48:23.125Z,84.60
2019-02-23T08:50:52.947Z,99.90
2019-02-23T08:53:22.747Z,86.50
2019-02-23T08:55:52.515Z,77.30
2019-02-23T08:58:22.371Z,99.90
2019-02-23T09:00:52.197Z,90.80
2019-02-23T09:03:22.077Z,98.60
2019-02-23T09:05:51.923Z,85.40
2019-02-23T09:08:21.798Z,79.80
2019-02-23T09:10:51.566Z,76.90
2019-02-23T09:13:21.434Z,66.50
2019-02-23T09:15:51.279Z,64.90
2019-02-23T09:18:21.163Z,64.10
2019-02-23T09:20:51.928Z,69.20
2019-02-23T09:23:21.895Z,58.90
2019-02-23T09:25:51.708Z,68.30
2019-02-23T09:28:21.571Z,65.90
2019-02-23T09:30:52.681Z,54.20
2019-02-23T09:33:22.542Z,67.40
2019-02-23T09:35:52.255Z,64.70
2019-02-23T09:38:22.085Z,66.90
2019-02-23T09:40:51.912Z,64.90
2019-02-23T09:43:21.655Z,53.30
2019-02-23T09:45:51.399Z,54.80
2019-02-23T09:48:23.427Z,57.50
2019-02-23T09:50:53.195Z,53.10
2019-02-23T09:53:23.080Z,56.70
2019-02-23T09:55:54.690Z,55.10
2019-02-23T09:58:24.623Z,48.90
2019-02-23T10:00:54.445Z,54.80
2019-02-23T10:03:24.261Z,47.40
2019-02-23T10:06:50.590Z,48.80
2019-02-23T10:09:20.787Z,52.80
2019-02-23T10:12:25.561Z,50.10
2019-02-23T10:14:59.602Z,56.40
2019-02-23T10:17:39.132Z,52.10
2019-02-23T10:20:10.336Z,46.60
2019-02-23T10:22:40.241Z,54.80
2019-02-23T10:25:13.052Z,52.30
2019-02-23T10:31:06.004Z,59.50
2019-02-23T10:33:41.390Z,56.60
2019-02-23T10:36:07.743Z,49.40
2019-02-23T10:38:47.413Z,53.80
2019-02-23T10:41:13.018Z,52.80
2019-02-23T10:43:44.571Z,51.00
2019-02-23T10:49:01.123Z,48.90
2019-02-23T10:51:31.151Z,47.40
2019-02-23T10:54:01.363Z,41.20
2019-02-23T10:56:31.247Z,45.20
2019-02-23T10:59:00.947Z,41.80
2019-02-23T11:01:30.703Z,38.60
2019-02-23T11:04:00.414Z,40.40
2019-02-23T11:06:30.163Z,45.50
2019-02-23T11:09:00.029Z,36.80
2019-02-23T11:11:29.970Z,35.60
2019-02-23T11:13:59.860Z,31.30
2019-02-23T11:16:29.773Z,33.00
2019-02-23T11:19:09.833Z,32.60
2019-02-23T11:21:39.593Z,34.30
2019-02-23T11:24:09.403Z,33.80
2019-02-23T11:26:39.297Z,32.30
2019-02-23T11:29:09.203Z,35.20
2019-02-23T11:31:41.058Z,38.50
2019-02-23T11:34:11.269Z,32.50
2019-02-23T11:36:42.662Z,32.90
2019-02-23T11:39:12.683Z,32.80
2019-02-23T11:41:42.694Z,32.30
2019-02-23T11:44:12.595Z,33.40
2019-02-23T11:46:59.278Z,32.60
2019-02-23T11:49:14.263Z,34.40
2019-02-23T11:51:44.219Z,39.30
2019-02-23T11:54:16.830Z,37.60
2019-02-23T11:56:46.744Z,41.90
2019-02-23T11:59:17.373Z,37.80
2019-02-23T12:01:49.963Z,42.30
2019-02-23T12:04:19.871Z,44.10
2019-02-23T12:06:49.702Z,41.00
2019-02-23T12:09:19.594Z,40.90
2019-02-23T12:11:49.322Z,43.00
2019-02-23T12:14:27.541Z,46.10
2019-02-23T12:16:57.324Z,45.80
2019-02-23T12:19:27.260Z,40.40
2019-02-23T12:21:57.026Z,40.50
2019-02-23T12:24:26.743Z,47.90
2019-02-23T12:27:05.005Z,42.20
2019-02-23T12:29:34.949Z,46.70
2019-02-23T12:32:07.752Z,44.60
2019-02-23T12:34:37.626Z,43.00
2019-02-23T12:37:07.420Z,46.60
2019-02-23T12:39:37.227Z,53.20
2019-02-23T12:42:07.059Z,49.00
2019-02-23T12:44:36.653Z,42.70
2019-02-23T12:47:06.439Z,44.40
2019-02-23T12:49:38.586Z,47.10
2019-02-23T12:52:10.387Z,49.80
2019-02-23T12:54:40.234Z,44.60
2019-02-23T12:57:10.003Z,47.90
2019-02-23T12:59:39.890Z,45.10
2019-02-23T13:02:09.746Z,47.20
2019-02-23T13:04:39.522Z,42.70
2019-02-23T13:07:09.357Z,45.00
2019-02-23T13:09:43.547Z,37.10
2019-02-23T13:12:44.001Z,40.50
2019-02-23T13:15:37.387Z,40.30
2019-02-23T13:18:24.341Z,39.60
2019-02-23T13:21:24.098Z,38.80
2019-02-23T13:24:14.394Z,44.30
2019-02-23T13:27:22.303Z,41.60
2019-02-23T13:30:28.253Z,39.30
2019-02-23T13:33:45.129Z,36.90
2019-02-23T13:36:40.754Z,37.00
2019-02-23T13:39:51.647Z,34.80
2019-02-23T13:42:59.018Z,31.20
2019-02-23T13:45:50.819Z,35.80
2019-02-23T13:48:43.288Z,35.10
2019-02-23T13:51:50.637Z,33.20
2019-02-23T13:54:51.760Z,38.00
2019-02-23T13:58:03.578Z,35.30
2019-02-23T14:01:13.969Z,37.50
2019-02-23T14:04:15.253Z,38.10
2019-02-23T14:07:27.628Z,36.30
2019-02-23T14:10:31.277Z,35.00
2019-02-23T14:13:30.946Z,35.40
2019-02-23T14:16:28.413Z,36.30
2019-02-23T14:19:32.643Z,37.30
2019-02-23T14:22:41.618Z,39.30
2019-02-23T14:25:52.825Z,40.40
2019-02-23T14:29:09.767Z,39.00
2019-02-23T14:32:04.630Z,41.30
2019-02-23T14:35:10.980Z,40.30
2019-02-23T14:38:09.445Z,44.30
2019-02-23T14:40:46.785Z,42.50
2019-02-23T14:43:47.031Z,40.30
2019-02-23T14:47:09.562Z,41.20
2019-02-23T14:50:21.875Z,38.70
2019-02-23T14:53:35.409Z,40.40
2019-02-23T14:56:41.045Z,39.40
2019-02-23T14:59:33.234Z,40.50
2019-02-23T15:02:36.121Z,38.40
2019-02-23T15:05:29.394Z,42.10
2019-02-23T15:08:41.730Z,45.60
2019-02-23T15:11:59.867Z,44.50
2019-02-23T15:14:43.332Z,44.20
2019-02-23T15:17:39.718Z,44.90
2019-02-23T15:21:11.322Z,45.90
2019-02-23T15:24:09.688Z,41.70
2019-02-23T15:27:38.537Z,42.20
2019-02-23T15:30:58.165Z,43.00
2019-02-23T15:33:48.501Z,41.10
2019-02-23T15:37:05.126Z,48.10
2019-02-23T15:40:19.021Z,46.00
2019-02-23T15:43:41.354Z,46.50
2019-02-23T15:47:00.882Z,47.80
2019-02-23T15:49:35.486Z,49.40
2019-02-23T15:52:06.948Z,46.60
2019-02-23T15:54:36.771Z,48.60
2019-02-23T15:57:06.645Z,46.10
2019-02-23T15:59:36.355Z,47.50
2019-02-23T16:02:06.278Z,50.40
2019-02-23T16:04:36.083Z,48.70
2019-02-23T16:07:06.077Z,50.00
2019-02-23T16:09:37.488Z,47.90
2019-02-23T16:12:07.364Z,48.60
2019-02-23T16:14:37.131Z,51.00
2019-02-23T16:17:06.889Z,50.40
2019-02-23T16:19:36.764Z,48.30
2019-02-23T16:22:06.887Z,51.00
2019-02-23T16:24:36.690Z,51.10
2019-02-23T16:27:06.530Z,49.60
2019-02-23T16:29:38.900Z,51.00
2019-02-23T16:32:07.921Z,51.00
2019-02-23T16:34:37.856Z,49.90
2019-02-23T16:37:07.714Z,51.50
2019-02-23T16:39:40.392Z,51.90
2019-02-23T16:42:09.129Z,50.40
2019-02-23T16:44:39.038Z,50.10
2019-02-23T16:47:08.761Z,50.00
2019-02-23T16:49:38.444Z,53.20
2019-02-23T16:52:09.249Z,52.20
2019-02-23T16:54:39.799Z,59.60
2019-02-23T16:57:09.822Z,55.20
2019-02-23T16:59:39.866Z,50.90
2019-02-23T17:02:09.720Z,54.60
2019-02-23T17:04:39.511Z,56.70
2019-02-23T17:07:09.298Z,55.00
2019-02-23T17:09:39.035Z,58.90
2019-02-23T17:12:10.040Z,55.30
2019-02-23T17:14:39.834Z,55.30
2019-02-23T17:17:12.724Z,58.20
2019-02-23T17:19:41.018Z,55.10
2019-02-23T17:22:15.441Z,52.70
2019-02-23T17:24:45.203Z,63.00
2019-02-23T17:27:15.141Z,64.40
2019-02-23T17:29:44.859Z,60.00
2019-02-23T17:32:14.556Z,59.00
2019-02-23T17:34:44.452Z,67.00
2019-02-23T17:37:14.186Z,58.10
2019-02-23T17:39:43.926Z,61.30
2019-02-23T17:42:13.640Z,59.10
2019-02-23T17:44:43.492Z,63.70
2019-02-23T17:47:13.229Z,63.30
2019-02-23T17:49:43.198Z,66.70
2019-02-23T17:52:12.957Z,74.40
2019-02-23T17:54:42.654Z,67.40
2019-02-23T17:57:12.389Z,83.70
2019-02-23T17:59:42.113Z,64.10
2019-02-23T18:02:11.798Z,61.40
2019-02-23T18:04:41.513Z,63.30
2019-02-23T18:07:11.272Z,73.50
2019-02-23T18:09:40.947Z,74.80
2019-02-23T18:12:10.854Z,69.60
2019-02-23T18:14:40.589Z,61.40
2019-02-23T18:17:10.665Z,61.50
2019-02-23T18:19:40.452Z,65.20
2019-02-23T18:22:10.226Z,70.00
2019-02-23T18:24:39.952Z,64.70
2019-02-23T18:27:09.672Z,65.20
2019-02-23T18:29:39.469Z,69.10
2019-02-23T18:32:09.278Z,86.60
2019-02-23T18:34:39.031Z,64.90
2019-02-23T18:37:08.761Z,68.60
2019-02-23T18:39:38.462Z,62.70
2019-02-23T18:42:08.205Z,71.50
2019-02-23T18:44:37.910Z,68.60
2019-02-23T18:47:07.720Z,74.00
2019-02-23T18:49:37.405Z,66.90
2019-02-23T18:52:07.182Z,62.50
2019-02-23T18:54:36.898Z,63.00
2019-02-23T18:57:06.670Z,59.30
2019-02-23T18:59:36.795Z,63.30
2019-02-23T19:02:06.471Z,64.60
2019-02-23T19:04:36.213Z,66.60
2019-02-23T19:07:05.873Z,59.50
2019-02-23T19:09:35.594Z,60.20
2019-02-23T19:12:05.389Z,62.60
2019-02-23T19:14:35.056Z,70.30
2019-02-23T19:17:04.854Z,62.70
2019-02-23T19:19:34.540Z,77.60
2019-02-23T19:22:04.297Z,77.50
2019-02-23T19:24:34.047Z,70.70
2019-02-23T19:27:03.730Z,66.20
2019-02-23T19:29:33.486Z,61.60
2019-02-23T19:32:05.369Z,74.20
2019-02-23T19:34:35.178Z,66.80
2019-02-23T19:37:05.000Z,60.70
2019-02-23T19:39:34.769Z,59.20
2019-02-23T19:42:04.430Z,60.70
2019-02-23T19:44:34.118Z,65.00
2019-02-23T19:47:09.409Z,71.70
2019-02-23T19:49:39.057Z,68.10
2019-02-23T19:52:09.117Z,70.30
2019-02-23T19:54:38.875Z,66.90
2019-02-23T19:57:08.617Z,62.90
2019-02-23T19:59:38.466Z,83.30
2019-02-23T20:02:08.073Z,76.00
2019-02-23T20:04:37.842Z,85.20
2019-02-23T20:07:08.377Z,82.30
2019-02-23T20:09:38.077Z,73.80
2019-02-23T20:12:07.696Z,67.50
2019-02-23T20:14:37.393Z,61.90
2019-02-23T20:17:07.140Z,61.20
2019-02-23T20:19:36.874Z,61.30
2019-02-23T20:22:06.670Z,94.60
2019-02-23T20:24:36.417Z,78.40
2019-02-23T20:27:06.260Z,81.60
2019-02-23T20:29:37.125Z,76.10
2019-02-23T20:32:07.040Z,67.30
2019-02-23T20:34:36.785Z,64.20
2019-02-23T20:37:06.418Z,70.20
2019-02-23T20:39:36.162Z,72.60
2019-02-23T20:42:06.020Z,64.50
2019-02-23T20:44:35.660Z,70.60
2019-02-23T20:47:05.507Z,68.10
2019-02-23T20:49:35.236Z,68.60
2019-02-23T20:52:04.954Z,67.60
2019-02-23T20:54:34.717Z,69.80
2019-02-23T20:57:07.993Z,69.70
2019-02-23T20:59:35.809Z,70.20
2019-02-23T21:02:05.590Z,69.80
2019-02-23T21:04:35.338Z,80.10
2019-02-23T21:07:04.976Z,77.30
2019-02-23T21:09:34.733Z,78.90
2019-02-23T21:12:04.368Z,73.80
2019-02-23T21:14:34.089Z,76.70
2019-02-23T21:17:03.793Z,74.50
2019-02-23T21:19:33.506Z,72.60
2019-02-23T21:22:03.238Z,82.90
2019-02-23T21:24:34.033Z,93.30
2019-02-23T21:27:03.713Z,76.90
2019-02-23T21:29:33.396Z,73.70
2019-02-23T21:32:03.022Z,73.60
2019-02-23T21:34:32.790Z,87.00
2019-02-23T21:37:02.558Z,76.00
2019-02-23T21:39:32.265Z,96.80
2019-02-23T21:42:02.032Z,81.80
2019-02-23T21:44:31.766Z,71.80
2019-02-23T21:47:01.473Z,67.50
2019-02-23T21:49:31.193Z,90.20
2019-02-23T21:52:00.837Z,77.70
2019-02-23T21:54:30.565Z,69.40
2019-02-23T21:57:00.268Z,69.10
2019-02-23T21:59:30.065Z,67.10
2019-02-23T22:01:59.801Z,92.90
2019-02-23T22:04:29.592Z,88.90
2019-02-23T22:06:59.393Z,94.80
2019-02-23T22:09:29.162Z,71.20
2019-02-23T22:11:58.865Z,72.20
2019-02-23T22:14:28.473Z,77.50
2019-02-23T22:16:58.193Z,82.40
2019-02-23T22:19:28.278Z,75.70
2019-02-23T22:21:58.098Z,81.90
2019-02-23T22:24:27.820Z,91.90
2019-02-23T22:26:57.565Z,80.90
2019-02-23T22:29:27.349Z,73.80
2019-02-23T22:31:57.159Z,77.20
2019-02-23T22:34:26.856Z,84.70
2019-02-23T22:36:56.511Z,77.40
2019-02-23T22:39:26.182Z,90.30
2019-02-23T22:41:55.864Z,80.70
2019-02-23T22:44:25.695Z,74.20
2019-02-23T22:46:55.396Z,72.60
2019-02-23T22:49:25.105Z,72.30
2019-02-23T22:51:55.186Z,67.50
2019-02-23T22:54:24.895Z,69.80
2019-02-23T22:56:56.028Z,67.40
2019-02-23T22:59:25.827Z,73.30
2019-02-23T23:01:55.497Z,67.90
2019-02-23T23:04:25.177Z,73.20
2019-02-23T23:06:54.936Z,71.40
2019-02-23T23:09:24.651Z,69.70
2019-02-23T23:11:54.452Z,74.20
2019-02-23T23:14:24.234Z,69.20
2019-02-23T23:16:53.916Z,71.00
2019-02-23T23:19:23.690Z,68.70
2019-02-23T23:21:53.366Z,94.80
2019-02-23T23:24:23.082Z,83.10
2019-02-23T23:26:53.078Z,81.00
2019-02-23T23:29:22.846Z,99.90
2019-02-23T23:31:52.535Z,94.80
2019-02-23T23:34:23.591Z,99.90
2019-02-23T23:36:53.402Z,98.30
2019-02-23T23:39:23.098Z,99.90
2019-02-23T23:41:52.918Z,99.90
2019-02-23T23:44:22.628Z,99.90
2019-02-23T23:46:52.293Z,99.90
2019-02-23T23:49:22.031Z,95.70
2019-02-23T23:51:51.739Z,99.90
2019-02-23T23:54:21.505Z,99.90
2019-02-23T23:56:51.203Z,96.30
2019-02-23T23:59:20.934Z,99.90
